Time;durP1;ratioP1;P1;durP2;ratioP2;P2;SDS_P1;SDS_P2;PMS_P1;PMS_P2;Temp;Humidity;BMP_temperature;BMP_pressure;BME280_temperature;BME280_humidity;BME280_pressure;Samples;Min_cycle;Max_cycle;Signal;HPM_P1;HPM_P2
2023/12/25 00:00:43;;;;;;;17.80;2.72;;;;;;;;;;4974629;28;20429;-74
2023/12/25 00:03:11;;;;;;;24.08;2.08;;;;;;;;;;4983539;28;20062;-73
2023/12/25 00:05:39;;;;;;;17.67;2.67;;;;;;;;;;4990281;28;20050;-73
2023/12/25 00:08:07;;;;;;;17.48;2.30;;;;;;;;;;4978921;28;20463;-73
2023/12/25 00:10:34;;;;;;;19.13;2.42;;;;;;;;;;4987248;28;20050;-73
2023/12/25 00:13:01;;;;;;;14.80;1.98;;;;;;;;;;4980347;28;20510;-73
2023/12/25 00:15:29;;;;;;;18.73;3.10;;;;;;;;;;4986434;28;20061;-72
2023/12/25 00:17:56;;;;;;;20.58;2.15;;;;;;;;;;4990278;28;20497;-73
2023/12/25 00:20:23;;;;;;;24.08;2.30;;;;;;;;;;4990912;28;20509;-73
2023/12/25 00:22:52;;;;;;;14.50;2.05;;;;;;;;;;4990702;28;20049;-73
2023/12/25 00:25:19;;;;;;;22.73;2.92;;;;;;;;;;4981297;28;20062;-74
2023/12/25 00:27:46;;;;;;;17.08;2.20;;;;;;;;;;4977814;28;20304;-73
2023/12/25 00:30:14;;;;;;;20.77;2.20;;;;;;;;;;4990814;28;20061;-73
2023/12/25 00:32:41;;;;;;;16.20;1.98;;;;;;;;;;4990704;28;20401;-74
2023/12/25 00:35:08;;;;;;;21.63;2.30;;;;;;;;;;4990571;28;20489;-73
2023/12/25 00:37:36;;;;;;;12.38;1.60;;;;;;;;;;4989942;28;20038;-72
2023/12/25 00:40:04;;;;;;;12.85;1.52;;;;;;;;;;4978541;28;20050;-72
2023/12/25 00:42:32;;;;;;;15.68;1.83;;;;;;;;;;4991293;28;20057;-73
2023/12/25 00:44:59;;;;;;;12.75;1.73;;;;;;;;;;4989193;28;20482;-74
2023/12/25 00:47:26;;;;;;;10.95;1.73;;;;;;;;;;4991277;28;20054;-73
2023/12/25 00:49:53;;;;;;;13.40;1.80;;;;;;;;;;4989522;28;20067;-73
2023/12/25 00:52:21;;;;;;;13.32;1.90;;;;;;;;;;4990697;28;20120;-74
2023/12/25 00:54:48;;;;;;;14.63;1.98;;;;;;;;;;4990111;28;20049;-73
2023/12/25 00:57:17;;;;;;;15.15;1.70;;;;;;;;;;4987073;28;20148;-75
2023/12/25 00:59:44;;;;;;;11.00;1.63;;;;;;;;;;4989908;28;20057;-74
2023/12/25 01:02:11;;;;;;;9.40;1.42;;;;;;;;;;4990671;28;20056;-73
2023/12/25 01:04:39;;;;;;;17.35;1.90;;;;;;;;;;4989237;28;20057;-73
2023/12/25 01:07:06;;;;;;;11.05;1.40;;;;;;;;;;4984400;28;20042;-74
2023/12/25 01:09:33;;;;;;;18.75;2.13;;;;;;;;;;4989851;28;20528;-74
2023/12/25 01:12:00;;;;;;;12.57;1.88;;;;;;;;;;4990540;28;20042;-73
2023/12/25 01:14:29;;;;;;;12.15;1.70;;;;;;;;;;4988104;28;20046;-73
2023/12/25 01:16:57;;;;;;;13.38;2.00;;;;;;;;;;4990312;28;20501;-73
2023/12/25 01:19:24;;;;;;;19.40;2.97;;;;;;;;;;4980087;28;20065;-73
2023/12/25 01:21:51;;;;;;;11.05;1.55;;;;;;;;;;4990133;28;20047;-73
2023/12/25 01:24:18;;;;;;;15.52;2.25;;;;;;;;;;4988930;28;20050;-73
2023/12/25 01:26:46;;;;;;;13.13;1.45;;;;;;;;;;4988402;28;20096;-74
2023/12/25 01:29:13;;;;;;;11.27;1.83;;;;;;;;;;4989059;28;20061;-73
2023/12/25 01:31:43;;;;;;;14.30;2.40;;;;;;;;;;4990124;28;20510;-73
2023/12/25 01:34:10;;;;;;;16.50;1.65;;;;;;;;;;4988495;28;20516;-73
2023/12/25 01:36:38;;;;;;;15.70;1.52;;;;;;;;;;4989981;28;20497;-73
2023/12/25 01:39:05;;;;;;;13.18;2.05;;;;;;;;;;4989789;28;20047;-73
2023/12/25 01:41:33;;;;;;;15.52;1.52;;;;;;;;;;4988454;28;20730;-73
2023/12/25 01:44:00;;;;;;;14.40;2.03;;;;;;;;;;4988686;28;20049;-73
2023/12/25 01:46:27;;;;;;;12.05;1.80;;;;;;;;;;4989427;28;20473;-73
2023/12/25 01:48:56;;;;;;;14.77;1.85;;;;;;;;;;4989024;28;20046;-73
2023/12/25 01:51:24;;;;;;;17.00;2.28;;;;;;;;;;4988592;28;20053;-73
2023/12/25 01:53:51;;;;;;;15.40;2.25;;;;;;;;;;4983928;28;20047;-72
2023/12/25 01:56:19;;;;;;;15.98;1.88;;;;;;;;;;4970501;28;20405;-72
2023/12/25 01:58:46;;;;;;;14.68;1.90;;;;;;;;;;4974693;28;20050;-72
2023/12/25 02:01:13;;;;;;;15.60;2.40;;;;;;;;;;4972351;28;20047;-72
2023/12/25 02:03:40;;;;;;;12.77;2.03;;;;;;;;;;4977385;28;20069;-71
2023/12/25 02:06:10;;;;;;;17.90;1.90;;;;;;;;;;4972686;28;20311;-73
2023/12/25 02:08:37;;;;;;;15.85;1.50;;;;;;;;;;4976507;28;20054;-72
2023/12/25 02:11:05;;;;;;;18.73;2.13;;;;;;;;;;4976556;28;21409;-71
2023/12/25 02:13:32;;;;;;;16.42;2.50;;;;;;;;;;4971056;28;20054;-71
2023/12/25 02:16:00;;;;;;;9.57;1.60;;;;;;;;;;4972531;28;20513;-73
2023/12/25 02:18:27;;;;;;;18.33;2.20;;;;;;;;;;4975562;28;20137;-72
2023/12/25 02:20:55;;;;;;;16.92;1.95;;;;;;;;;;4973785;28;20046;-72
2023/12/25 02:23:24;;;;;;;17.27;2.00;;;;;;;;;;4977032;28;20416;-73
2023/12/25 02:25:55;;;;;;;15.43;2.10;;;;;;;;;;4973610;28;20069;-73
2023/12/25 02:28:23;;;;;;;11.88;1.40;;;;;;;;;;4971298;28;20553;-73
2023/12/25 02:30:51;;;;;;;16.23;1.73;;;;;;;;;;4970818;28;20058;-71
2023/12/25 02:33:18;;;;;;;16.60;2.40;;;;;;;;;;4973090;28;20062;-71
2023/12/25 02:35:45;;;;;;;20.58;2.33;;;;;;;;;;4973589;28;20050;-73
2023/12/25 02:38:12;;;;;;;19.80;2.15;;;;;;;;;;4979242;28;20073;-73
2023/12/25 02:40:40;;;;;;;18.00;2.17;;;;;;;;;;4975233;28;20053;-72
2023/12/25 02:43:09;;;;;;;10.77;2.05;;;;;;;;;;4978554;28;20058;-72
2023/12/25 02:45:37;;;;;;;16.58;2.05;;;;;;;;;;4977139;28;20080;-73
2023/12/25 02:48:04;;;;;;;14.75;1.77;;;;;;;;;;4982051;28;20046;-72
2023/12/25 02:50:31;;;;;;;19.98;1.98;;;;;;;;;;4988908;28;20057;-73
2023/12/25 02:52:59;;;;;;;16.73;1.75;;;;;;;;;;4989393;28;20069;-72
2023/12/25 02:55:26;;;;;;;15.73;2.15;;;;;;;;;;4985248;28;20053;-72
2023/12/25 02:57:53;;;;;;;17.08;2.17;;;;;;;;;;4980125;28;20087;-72
2023/12/25 03:00:22;;;;;;;18.45;2.00;;;;;;;;;;4969305;28;20046;-73
2023/12/25 03:02:52;;;;;;;21.50;2.45;;;;;;;;;;4976825;28;20091;-73
2023/12/25 03:05:19;;;;;;;10.48;1.67;;;;;;;;;;4980999;28;20054;-73
2023/12/25 03:07:46;;;;;;;22.73;2.78;;;;;;;;;;4979166;28;20050;-73
2023/12/25 03:10:14;;;;;;;15.07;2.22;;;;;;;;;;4978059;28;20058;-73
2023/12/25 03:12:41;;;;;;;21.85;2.63;;;;;;;;;;4975091;28;20054;-73
2023/12/25 03:15:08;;;;;;;14.57;2.03;;;;;;;;;;4974122;28;20058;-72
2023/12/25 03:17:37;;;;;;;18.83;2.13;;;;;;;;;;4975951;28;20053;-72
2023/12/25 03:20:05;;;;;;;12.90;2.17;;;;;;;;;;4975022;28;20058;-72
2023/12/25 03:22:32;;;;;;;18.02;2.67;;;;;;;;;;4973043;28;20409;-73
2023/12/25 03:25:00;;;;;;;18.92;1.80;;;;;;;;;;4986278;28;20073;-72
2023/12/25 03:27:27;;;;;;;19.13;2.38;;;;;;;;;;4984712;28;20062;-72
2023/12/25 03:29:55;;;;;;;15.68;2.72;;;;;;;;;;4987443;28;20410;-73
2023/12/25 03:32:22;;;;;;;12.07;2.30;;;;;;;;;;4985665;28;20046;-73
2023/12/25 03:34:51;;;;;;;19.23;2.80;;;;;;;;;;4975855;28;20058;-73
2023/12/25 03:37:18;;;;;;;17.63;2.45;;;;;;;;;;4977915;28;20137;-71
2023/12/25 03:39:45;;;;;;;15.68;1.70;;;;;;;;;;4970424;28;20060;-73
2023/12/25 03:42:13;;;;;;;19.15;3.75;;;;;;;;;;4978210;28;20054;-73
2023/12/25 03:44:40;;;;;;;18.45;2.03;;;;;;;;;;4975933;28;20398;-72
2023/12/25 03:47:07;;;;;;;16.73;2.08;;;;;;;;;;4977609;28;20065;-71
2023/12/25 03:49:35;;;;;;;21.85;2.22;;;;;;;;;;4977784;28;20052;-73
2023/12/25 03:52:03;;;;;;;18.23;2.20;;;;;;;;;;4972446;28;20125;-73
2023/12/25 03:54:31;;;;;;;17.73;2.10;;;;;;;;;;4976272;28;20054;-72
2023/12/25 03:56:58;;;;;;;20.80;3.05;;;;;;;;;;4976683;28;20058;-72
2023/12/25 03:59:25;;;;;;;15.10;2.55;;;;;;;;;;4974321;28;20104;-73
2023/12/25 04:01:53;;;;;;;17.05;2.35;;;;;;;;;;4979188;28;20046;-73
2023/12/25 04:04:20;;;;;;;15.50;2.10;;;;;;;;;;4987509;28;20050;-72
2023/12/25 04:06:47;;;;;;;16.33;1.80;;;;;;;;;;4978739;28;20097;-72
2023/12/25 04:09:16;;;;;;;12.70;1.63;;;;;;;;;;4976263;28;20058;-73
2023/12/25 04:11:43;;;;;;;20.48;2.15;;;;;;;;;;4980969;28;20050;-73
2023/12/25 04:14:10;;;;;;;18.10;1.95;;;;;;;;;;4974895;28;20061;-74
2023/12/25 04:16:38;;;;;;;17.50;2.67;;;;;;;;;;4990085;28;20090;-73
2023/12/25 04:19:05;;;;;;;14.60;1.95;;;;;;;;;;4990961;28;20053;-73
2023/12/25 04:21:33;;;;;;;16.30;2.90;;;;;;;;;;4990715;28;20050;-73
2023/12/25 04:24:01;;;;;;;16.90;2.45;;;;;;;;;;4991282;28;20046;-72
2023/12/25 04:26:29;;;;;;;15.52;2.30;;;;;;;;;;4991581;28;20046;-73
2023/12/25 04:28:57;;;;;;;15.73;2.17;;;;;;;;;;4989695;28;20053;-73
2023/12/25 04:31:24;;;;;;;17.90;2.13;;;;;;;;;;4979487;28;20046;-73
2023/12/25 04:33:51;;;;;;;10.73;1.83;;;;;;;;;;4990692;28;20064;-73
2023/12/25 04:36:18;;;;;;;18.00;2.22;;;;;;;;;;4990453;28;20054;-73
2023/12/25 04:38:45;;;;;;;14.82;1.83;;;;;;;;;;4991220;28;20131;-73
2023/12/25 04:41:13;;;;;;;15.25;1.92;;;;;;;;;;4988717;28;20046;-73
2023/12/25 04:43:41;;;;;;;14.88;2.08;;;;;;;;;;4990918;28;20050;-73
2023/12/25 04:46:09;;;;;;;15.70;1.92;;;;;;;;;;4971556;28;20066;-74
2023/12/25 04:48:36;;;;;;;16.20;2.05;;;;;;;;;;4991375;28;20042;-73
2023/12/25 04:51:03;;;;;;;17.00;2.67;;;;;;;;;;4989602;28;20050;-72
2023/12/25 04:53:31;;;;;;;17.98;2.05;;;;;;;;;;4981356;28;20065;-74
2023/12/25 04:55:58;;;;;;;17.90;2.10;;;;;;;;;;4989607;28;20077;-73
2023/12/25 04:58:26;;;;;;;18.52;2.35;;;;;;;;;;4990867;28;20046;-73
2023/12/25 05:00:54;;;;;;;14.32;2.15;;;;;;;;;;4989612;28;20046;-73
2023/12/25 05:03:22;;;;;;;14.60;2.08;;;;;;;;;;4979940;28;20062;-73
2023/12/25 05:05:49;;;;;;;17.60;2.65;;;;;;;;;;4974773;28;20405;-73
2023/12/25 05:08:18;;;;;;;13.93;2.22;;;;;;;;;;4973518;28;20157;-74
2023/12/25 05:10:45;;;;;;;14.20;1.73;;;;;;;;;;4990073;28;20429;-74
2023/12/25 05:13:12;;;;;;;17.73;1.92;;;;;;;;;;4990093;28;20050;-73
2023/12/25 05:15:40;;;;;;;15.77;1.88;;;;;;;;;;4989659;28;20054;-73
2023/12/25 05:18:08;;;;;;;16.00;2.50;;;;;;;;;;4989554;28;20085;-73
2023/12/25 05:20:35;;;;;;;15.88;1.80;;;;;;;;;;4989638;28;20051;-74
2023/12/25 05:23:02;;;;;;;14.63;2.13;;;;;;;;;;4990608;28;20053;-73
2023/12/25 05:25:29;;;;;;;18.88;2.22;;;;;;;;;;4989208;28;20053;-72
2023/12/25 05:27:57;;;;;;;12.75;1.63;;;;;;;;;;4989968;28;20046;-74
2023/12/25 05:30:24;;;;;;;15.77;2.10;;;;;;;;;;4988210;28;20050;-73
2023/12/25 05:32:52;;;;;;;13.23;1.58;;;;;;;;;;4990792;28;20147;-74
2023/12/25 05:35:20;;;;;;;12.73;2.35;;;;;;;;;;4989794;28;20061;-73
2023/12/25 05:37:48;;;;;;;20.58;2.15;;;;;;;;;;4972022;28;20100;-73
2023/12/25 05:40:15;;;;;;;24.75;3.65;;;;;;;;;;4988493;28;20393;-74
2023/12/25 05:42:42;;;;;;;15.85;2.00;;;;;;;;;;4989539;28;20049;-73
2023/12/25 05:45:10;;;;;;;17.48;1.88;;;;;;;;;;4988582;28;20057;-74
2023/12/25 05:47:37;;;;;;;17.08;2.47;;;;;;;;;;4986328;28;20054;-73
2023/12/25 05:50:06;;;;;;;18.73;1.98;;;;;;;;;;4989742;28;20046;-72
2023/12/25 05:52:34;;;;;;;20.75;2.63;;;;;;;;;;4988916;28;20133;-73
2023/12/25 05:55:02;;;;;;;23.27;2.75;;;;;;;;;;4990171;28;20060;-73
2023/12/25 05:57:29;;;;;;;16.73;2.30;;;;;;;;;;4989112;28;20047;-74
2023/12/25 05:59:56;;;;;;;17.17;2.33;;;;;;;;;;4989221;28;20438;-74
2023/12/25 06:02:24;;;;;;;18.88;2.47;;;;;;;;;;4974514;28;20061;-74
2023/12/25 06:04:51;;;;;;;16.75;2.40;;;;;;;;;;4988797;28;20050;-73
2023/12/25 06:07:18;;;;;;;17.58;1.77;;;;;;;;;;4989608;28;20057;-74
2023/12/25 06:09:47;;;;;;;14.48;1.63;;;;;;;;;;4985765;28;20550;-73
2023/12/25 06:12:14;;;;;;;15.25;1.83;;;;;;;;;;4985806;28;20073;-74
2023/12/25 06:14:41;;;;;;;18.60;2.10;;;;;;;;;;4988569;28;20062;-73
2023/12/25 06:17:09;;;;;;;20.52;2.30;;;;;;;;;;4989116;28;20058;-72
2023/12/25 06:19:36;;;;;;;15.00;1.85;;;;;;;;;;4988705;28;20057;-74
2023/12/25 06:22:03;;;;;;;14.77;2.17;;;;;;;;;;4988921;28;20046;-72
2023/12/25 06:24:30;;;;;;;14.77;2.40;;;;;;;;;;4989057;28;20607;-73
2023/12/25 06:26:59;;;;;;;24.25;2.15;;;;;;;;;;4989119;28;20050;-73
2023/12/25 06:29:26;;;;;;;17.48;1.98;;;;;;;;;;4976633;28;20069;-73
2023/12/25 06:31:54;;;;;;;17.60;2.10;;;;;;;;;;4988978;28;20042;-73
2023/12/25 06:34:21;;;;;;;18.33;1.83;;;;;;;;;;4989097;28;20593;-71
2023/12/25 06:36:48;;;;;;;20.02;2.13;;;;;;;;;;4990264;28;20051;-71
2023/12/25 06:39:16;;;;;;;18.92;2.10;;;;;;;;;;4975805;28;20070;-71
2023/12/25 06:41:43;;;;;;;16.52;1.70;;;;;;;;;;4987390;28;20047;-71
2023/12/25 06:44:12;;;;;;;15.60;2.25;;;;;;;;;;4975690;28;20081;-71
2023/12/25 06:46:40;;;;;;;14.73;2.28;;;;;;;;;;4975323;28;20117;-71
2023/12/25 06:49:07;;;;;;;10.85;1.50;;;;;;;;;;4988113;28;20105;-71
2023/12/25 06:51:34;;;;;;;27.58;2.13;;;;;;;;;;4977970;28;20073;-71
2023/12/25 06:54:02;;;;;;;15.30;1.92;;;;;;;;;;4976574;28;20051;-72
2023/12/25 06:56:29;;;;;;;21.20;1.88;;;;;;;;;;4972502;28;20100;-70
2023/12/25 06:58:56;;;;;;;14.30;2.03;;;;;;;;;;4988640;28;20068;-71
2023/12/25 07:01:25;;;;;;;19.35;2.10;;;;;;;;;;4994520;28;20058;-71
2023/12/25 07:03:52;;;;;;;19.45;2.47;;;;;;;;;;4985478;28;20054;-70
2023/12/25 07:06:20;;;;;;;16.73;2.55;;;;;;;;;;4988496;28;20133;-71
2023/12/25 07:08:47;;;;;;;24.27;2.50;;;;;;;;;;4977569;28;20096;-71
2023/12/25 07:11:14;;;;;;;18.67;1.83;;;;;;;;;;4976053;28;20076;-71
2023/12/25 07:13:42;;;;;;;24.27;3.35;;;;;;;;;;4978263;28;20063;-71
2023/12/25 07:16:09;;;;;;;11.82;2.38;;;;;;;;;;4986600;28;20062;-71
2023/12/25 07:18:38;;;;;;;12.85;1.75;;;;;;;;;;4975836;28;20204;-71
2023/12/25 07:21:06;;;;;;;16.10;1.75;;;;;;;;;;4972250;28;20494;-72
2023/12/25 07:23:33;;;;;;;18.67;2.33;;;;;;;;;;4976288;28;20054;-71
2023/12/25 07:26:00;;;;;;;18.90;2.10;;;;;;;;;;4979308;28;20093;-71
2023/12/25 07:28:28;;;;;;;11.38;1.67;;;;;;;;;;4991229;28;20420;-71
2023/12/25 07:30:55;;;;;;;19.02;1.73;;;;;;;;;;4991414;28;20081;-71
2023/12/25 07:33:22;;;;;;;31.40;4.30;;;;;;;;;;4984329;28;20417;-71
2023/12/25 07:35:52;;;;;;;9.82;1.40;;;;;;;;;;4980733;28;20064;-70
2023/12/25 07:38:20;;;;;;;7.55;1.02;;;;;;;;;;4991283;28;20469;-71
2023/12/25 07:40:49;;;;;;;8.68;1.00;;;;;;;;;;4973523;28;20046;-71
2023/12/25 07:43:16;;;;;;;9.02;1.10;;;;;;;;;;4975740;28;20063;-71
2023/12/25 07:45:44;;;;;;;6.35;0.80;;;;;;;;;;4992350;28;20051;-71
2023/12/25 07:48:11;;;;;;;6.60;1.23;;;;;;;;;;4991278;28;20042;-71
2023/12/25 07:50:38;;;;;;;10.20;1.42;;;;;;;;;;4991917;28;20043;-71
2023/12/25 07:53:07;;;;;;;8.15;1.08;;;;;;;;;;4991115;28;20058;-72
2023/12/25 07:55:36;;;;;;;13.70;1.92;;;;;;;;;;4978967;28;20050;-71
2023/12/25 07:58:03;;;;;;;8.32;0.95;;;;;;;;;;4975065;28;20086;-71
2023/12/25 08:00:31;;;;;;;9.02;1.08;;;;;;;;;;4978308;28;20113;-71
2023/12/25 08:02:58;;;;;;;10.75;1.40;;;;;;;;;;4991063;28;20050;-72
2023/12/25 08:05:25;;;;;;;8.25;1.00;;;;;;;;;;4991485;28;20524;-71
2023/12/25 08:07:52;;;;;;;11.20;1.25;;;;;;;;;;4975729;28;20058;-71
2023/12/25 08:10:21;;;;;;;6.07;0.80;;;;;;;;;;4989681;28;20513;-71
2023/12/25 08:12:48;;;;;;;16.67;1.30;;;;;;;;;;4992003;28;20053;-70
2023/12/25 08:15:17;;;;;;;13.15;1.40;;;;;;;;;;4990327;28;20064;-71
2023/12/25 08:17:44;;;;;;;10.70;1.73;;;;;;;;;;4975381;28;20097;-70
2023/12/25 08:20:11;;;;;;;10.43;1.20;;;;;;;;;;4979277;28;20517;-71
2023/12/25 08:22:39;;;;;;;12.68;1.45;;;;;;;;;;4990731;28;20557;-71
2023/12/25 08:25:07;;;;;;;12.35;1.27;;;;;;;;;;4974204;28;20418;-71
2023/12/25 08:27:35;;;;;;;15.68;1.45;;;;;;;;;;4981039;28;20108;-71
2023/12/25 08:30:03;;;;;;;8.82;1.17;;;;;;;;;;4972611;28;20097;-71
2023/12/25 08:32:31;;;;;;;11.15;1.45;;;;;;;;;;4975467;28;20398;-71
2023/12/25 08:34:58;;;;;;;10.75;1.45;;;;;;;;;;4973464;28;20054;-72
2023/12/25 08:37:25;;;;;;;10.07;1.23;;;;;;;;;;4986308;28;20058;-71
2023/12/25 08:39:52;;;;;;;11.95;1.15;;;;;;;;;;4991834;28;20089;-71
2023/12/25 08:42:19;;;;;;;14.95;1.52;;;;;;;;;;4977376;28;20430;-70
2023/12/25 08:44:48;;;;;;;5.78;1.15;;;;;;;;;;4978258;28;20046;-70
2023/12/25 08:47:16;;;;;;;7.68;1.08;;;;;;;;;;4983691;28;20061;-72
2023/12/25 08:49:43;;;;;;;12.00;1.50;;;;;;;;;;4971833;28;20490;-71
2023/12/25 08:52:10;;;;;;;11.85;1.25;;;;;;;;;;4990305;28;20054;-71
2023/12/25 08:54:37;;;;;;;11.18;1.40;;;;;;;;;;4979327;28;20046;-73
2023/12/25 08:57:05;;;;;;;14.68;2.08;;;;;;;;;;4977244;28;20133;-72
2023/12/25 08:59:32;;;;;;;13.25;1.27;;;;;;;;;;4978242;28;20516;-73
2023/12/25 09:02:02;;;;;;;14.90;1.65;;;;;;;;;;4980833;28;20061;-73
2023/12/25 09:04:29;;;;;;;15.70;1.38;;;;;;;;;;4985513;28;20050;-73
2023/12/25 09:06:57;;;;;;;12.93;1.40;;;;;;;;;;4990024;28;20057;-73
2023/12/25 09:09:24;;;;;;;13.57;1.55;;;;;;;;;;4973417;28;20046;-73
2023/12/25 09:11:51;;;;;;;13.23;1.25;;;;;;;;;;4981343;28;20057;-73
2023/12/25 09:14:20;;;;;;;15.10;1.45;;;;;;;;;;4975381;28;20057;-73
2023/12/25 09:16:47;;;;;;;18.63;1.40;;;;;;;;;;4970410;28;20084;-73
2023/12/25 09:19:16;;;;;;;20.17;1.98;;;;;;;;;;4975049;28;20061;-73
2023/12/25 09:21:43;;;;;;;10.35;1.83;;;;;;;;;;4978493;28;20489;-73
2023/12/25 09:24:10;;;;;;;17.80;1.92;;;;;;;;;;4983855;28;20153;-73
2023/12/25 09:26:38;;;;;;;20.73;2.40;;;;;;;;;;4977115;28;20058;-73
2023/12/25 09:29:05;;;;;;;10.23;1.55;;;;;;;;;;4974653;28;20050;-73
2023/12/25 09:31:32;;;;;;;12.90;1.52;;;;;;;;;;4975259;28;20054;-73
2023/12/25 09:33:59;;;;;;;15.68;1.80;;;;;;;;;;4973714;28;20073;-73
2023/12/25 09:36:29;;;;;;;18.10;2.40;;;;;;;;;;4984525;28;20073;-73
2023/12/25 09:38:56;;;;;;;13.13;2.30;;;;;;;;;;4979194;28;20405;-73
2023/12/25 09:41:24;;;;;;;10.13;1.35;;;;;;;;;;4976607;28;20054;-73
2023/12/25 09:43:52;;;;;;;17.98;2.50;;;;;;;;;;4975004;28;20043;-73
2023/12/25 09:46:20;;;;;;;10.57;1.60;;;;;;;;;;4973444;28;20633;-73
2023/12/25 09:48:48;;;;;;;13.88;1.83;;;;;;;;;;4980161;28;20058;-73
2023/12/25 09:51:18;;;;;;;10.02;1.70;;;;;;;;;;4973929;28;20109;-73
2023/12/25 09:53:47;;;;;;;18.27;2.15;;;;;;;;;;4977472;28;20053;-73
2023/12/25 09:56:16;;;;;;;11.65;1.73;;;;;;;;;;4974621;28;20056;-73
2023/12/25 09:58:45;;;;;;;23.73;1.90;;;;;;;;;;4971178;28;20376;-73
2023/12/25 10:01:12;;;;;;;13.82;2.50;;;;;;;;;;4973909;28;20060;-73
2023/12/25 10:03:42;;;;;;;16.02;1.70;;;;;;;;;;4975573;28;20118;-73
2023/12/25 10:06:09;;;;;;;18.20;2.53;;;;;;;;;;4988310;28;20050;-73
2023/12/25 10:08:37;;;;;;;16.73;1.90;;;;;;;;;;4989586;28;20052;-73
2023/12/25 10:11:08;;;;;;;11.80;1.80;;;;;;;;;;4988279;28;20049;-73
2023/12/25 10:13:36;;;;;;;13.95;1.80;;;;;;;;;;4985923;28;20054;-73
2023/12/25 10:16:03;;;;;;;14.98;1.92;;;;;;;;;;4987739;28;20133;-72
2023/12/25 10:18:33;;;;;;;18.80;2.03;;;;;;;;;;4989006;28;20130;-73
2023/12/25 10:21:01;;;;;;;15.60;2.65;;;;;;;;;;4988742;28;20048;-74
2023/12/25 10:23:30;;;;;;;24.95;2.85;;;;;;;;;;4989263;28;20042;-73
2023/12/25 10:25:58;;;;;;;16.67;2.10;;;;;;;;;;4989123;28;20050;-74
2023/12/25 10:28:32;;;;;;;14.63;1.67;;;;;;;;;;4971282;28;20406;-74
2023/12/25 10:31:00;;;;;;;17.25;2.13;;;;;;;;;;4976675;28;20054;-73
2023/12/25 10:33:27;;;;;;;14.50;1.50;;;;;;;;;;4988458;28;20054;-74
2023/12/25 10:36:03;;;;;;;15.40;1.73;;;;;;;;;;4989258;28;20053;-74
2023/12/25 10:38:33;;;;;;;13.93;1.70;;;;;;;;;;4987386;28;20085;-74
2023/12/25 10:41:00;;;;;;;14.88;1.65;;;;;;;;;;4970219;28;20061;-73
2023/12/25 10:43:27;;;;;;;20.65;2.53;;;;;;;;;;4988257;28;20050;-73
2023/12/25 10:45:57;;;;;;;16.70;2.00;;;;;;;;;;4988374;28;20054;-74
2023/12/25 10:48:25;;;;;;;16.10;1.83;;;;;;;;;;4987498;28;20500;-74
2023/12/25 10:50:53;;;;;;;15.68;2.22;;;;;;;;;;4966672;28;20063;-74
2023/12/25 10:53:21;;;;;;;16.60;2.25;;;;;;;;;;4988915;28;20073;-74
2023/12/25 10:55:49;;;;;;;21.98;2.03;;;;;;;;;;4985622;28;20054;-75
2023/12/25 10:58:18;;;;;;;19.35;2.05;;;;;;;;;;4988525;28;20059;-74
2023/12/25 11:00:49;;;;;;;23.25;2.25;;;;;;;;;;4992334;28;20046;-73
2023/12/25 11:03:18;;;;;;;20.10;2.75;;;;;;;;;;4990226;28;20085;-74
2023/12/25 11:05:46;;;;;;;16.17;2.42;;;;;;;;;;4992334;28;20508;-74
2023/12/25 11:08:15;;;;;;;17.88;3.22;;;;;;;;;;4992180;28;20051;-74
2023/12/25 11:10:42;;;;;;;24.80;2.20;;;;;;;;;;4992026;28;20125;-74
2023/12/25 11:13:09;;;;;;;17.83;3.25;;;;;;;;;;4987750;28;20053;-71
2023/12/25 11:15:37;;;;;;;17.83;2.25;;;;;;;;;;4982911;28;20062;-71
2023/12/25 11:18:07;;;;;;;20.48;2.50;;;;;;;;;;4992420;28;20101;-71
2023/12/25 11:20:36;;;;;;;29.33;4.05;;;;;;;;;;4994520;28;20060;-71
2023/12/25 11:23:03;;;;;;;21.45;1.95;;;;;;;;;;4975249;28;20057;-72
2023/12/25 11:25:33;;;;;;;15.88;1.90;;;;;;;;;;4981587;28;20050;-71
2023/12/25 11:28:00;;;;;;;26.08;2.70;;;;;;;;;;4975739;28;20101;-71
2023/12/25 11:30:28;;;;;;;20.65;2.30;;;;;;;;;;4991578;28;20158;-71
2023/12/25 11:32:56;;;;;;;9.98;2.25;;;;;;;;;;4992393;28;20038;-72
2023/12/25 11:35:28;;;;;;;13.63;1.35;;;;;;;;;;4991934;28;20089;-71
2023/12/25 11:38:10;;;;;;;10.13;0.80;;;;;;;;;;4991758;28;20089;-71
2023/12/25 11:40:40;;;;;;;11.43;1.10;;;;;;;;;;4974752;28;20821;-71
2023/12/25 11:43:09;;;;;;;7.03;1.52;;;;;;;;;;4982886;28;20053;-72
2023/12/25 11:45:38;;;;;;;9.27;1.02;;;;;;;;;;4992082;28;20047;-71
2023/12/25 11:48:08;;;;;;;15.82;1.40;;;;;;;;;;4988419;28;20054;-70
2023/12/25 11:50:35;;;;;;;15.23;1.17;;;;;;;;;;4970275;28;20057;-72
2023/12/25 11:53:03;;;;;;;17.48;1.50;;;;;;;;;;4992039;28;20054;-72
2023/12/25 11:55:30;;;;;;;9.32;1.20;;;;;;;;;;4971720;28;20760;-71
2023/12/25 11:57:59;;;;;;;12.35;1.38;;;;;;;;;;4983530;28;20409;-71
2023/12/25 12:00:27;;;;;;;11.52;1.25;;;;;;;;;;4977667;28;20054;-71
2023/12/25 12:02:55;;;;;;;14.05;1.27;;;;;;;;;;4977345;28;20125;-70
2023/12/25 12:05:22;;;;;;;12.50;1.55;;;;;;;;;;4971795;28;20052;-72
2023/12/25 12:07:50;;;;;;;18.58;2.53;;;;;;;;;;4991801;28;20576;-72
2023/12/25 12:10:17;;;;;;;14.48;2.33;;;;;;;;;;4990600;28;20050;-71
2023/12/25 12:12:45;;;;;;;21.27;1.67;;;;;;;;;;4979159;28;20054;-71
2023/12/25 12:15:13;;;;;;;9.02;1.20;;;;;;;;;;4972838;28;20058;-72
2023/12/25 12:17:40;;;;;;;22.20;1.75;;;;;;;;;;4977657;28;20147;-72
2023/12/25 12:20:08;;;;;;;20.77;1.90;;;;;;;;;;4990204;28;20046;-72
2023/12/25 12:22:36;;;;;;;12.10;1.73;;;;;;;;;;4980255;28;20159;-74
2023/12/25 12:25:13;;;;;;;17.23;1.35;;;;;;;;;;4989670;28;20042;-74
2023/12/25 12:27:40;;;;;;;17.88;2.05;;;;;;;;;;4984989;28;20057;-74
2023/12/25 12:30:08;;;;;;;15.00;2.42;;;;;;;;;;4978069;28;20046;-74
2023/12/25 12:32:38;;;;;;;11.88;2.03;;;;;;;;;;4979756;28;20061;-74
2023/12/25 12:35:05;;;;;;;10.25;2.15;;;;;;;;;;4978994;28;20046;-73
2023/12/25 12:37:33;;;;;;;7.57;0.98;;;;;;;;;;4978764;28;20051;-73
2023/12/25 12:40:01;;;;;;;13.60;1.00;;;;;;;;;;4978356;28;20051;-73
2023/12/25 12:42:28;;;;;;;7.43;1.27;;;;;;;;;;4979984;28;20050;-73
2023/12/25 12:44:58;;;;;;;13.10;1.40;;;;;;;;;;4972683;28;20046;-73
2023/12/25 12:47:26;;;;;;;8.38;1.35;;;;;;;;;;4982163;28;20512;-73
2023/12/25 12:49:54;;;;;;;12.00;1.65;;;;;;;;;;4977097;28;20449;-74
2023/12/25 12:52:22;;;;;;;11.75;1.60;;;;;;;;;;4977591;28;20540;-74
2023/12/25 12:54:49;;;;;;;14.93;1.60;;;;;;;;;;4973763;28;20054;-73
2023/12/25 12:57:16;;;;;;;9.45;1.33;;;;;;;;;;4971324;28;20054;-74
2023/12/25 12:59:43;;;;;;;10.23;1.35;;;;;;;;;;4977377;28;20046;-73
2023/12/25 13:02:11;;;;;;;15.60;1.88;;;;;;;;;;4980514;28;20053;-73
2023/12/25 13:04:38;;;;;;;22.15;2.28;;;;;;;;;;4985372;28;20050;-74
2023/12/25 13:07:07;;;;;;;20.55;2.22;;;;;;;;;;4987011;28;20050;-74
2023/12/25 13:09:34;;;;;;;21.20;2.53;;;;;;;;;;4974002;28;20564;-74
2023/12/25 13:12:02;;;;;;;19.10;1.85;;;;;;;;;;4975820;28;20042;-73
2023/12/25 13:14:29;;;;;;;19.65;2.25;;;;;;;;;;4970064;28;20047;-74
2023/12/25 13:16:56;;;;;;;23.75;2.28;;;;;;;;;;4967485;28;20703;-74
2023/12/25 13:19:24;;;;;;;25.70;2.70;;;;;;;;;;4973142;28;20179;-73
2023/12/25 13:21:51;;;;;;;21.52;3.80;;;;;;;;;;4973451;28;20409;-73
2023/12/25 13:24:20;;;;;;;22.80;5.22;;;;;;;;;;4974039;28;20054;-73
2023/12/25 13:26:48;;;;;;;27.48;5.22;;;;;;;;;;4969292;28;20057;-73
2023/12/25 13:29:15;;;;;;;16.42;3.10;;;;;;;;;;4972153;28;20420;-74
2023/12/25 13:31:42;;;;;;;23.13;2.95;;;;;;;;;;4974787;28;20406;-73
2023/12/25 13:34:11;;;;;;;23.98;2.80;;;;;;;;;;4966914;28;20141;-73
2023/12/25 13:42:15;;;;;;;20.27;3.38;;;;;;;;;;5277254;23;20058;-67
2023/12/25 13:44:44;;;;;;;24.15;2.63;;;;;;;;;;4995367;28;20524;-67
2023/12/25 13:52:54;;;;;;;19.75;2.60;;;;;;;;;;5240501;23;20096;-64
2023/12/25 13:55:21;;;;;;;27.48;2.42;;;;;;;;;;5003999;28;20483;-65
2023/12/25 13:57:50;;;;;;;21.85;2.33;;;;;;;;;;4998699;28;20053;-63
2023/12/25 14:00:18;;;;;;;19.23;2.92;;;;;;;;;;5004902;28;20045;-63
2023/12/25 14:02:46;;;;;;;18.48;2.25;;;;;;;;;;5006158;28;20050;-63
2023/12/25 14:05:13;;;;;;;24.90;2.35;;;;;;;;;;4984361;28;20056;-63
2023/12/25 14:07:40;;;;;;;22.83;2.55;;;;;;;;;;5006966;28;20129;-63
2023/12/25 14:10:08;;;;;;;21.90;3.55;;;;;;;;;;5001758;28;20507;-63
2023/12/25 14:12:36;;;;;;;15.82;2.05;;;;;;;;;;5001772;28;20054;-62
2023/12/25 14:15:06;;;;;;;16.13;2.45;;;;;;;;;;5445654;23;20050;-71
2023/12/25 14:17:33;;;;;;;24.02;3.72;;;;;;;;;;5009499;23;20046;-65
2023/12/25 14:20:00;;;;;;;19.83;2.92;;;;;;;;;;5005673;28;20072;-65
2023/12/25 14:22:27;;;;;;;16.95;2.60;;;;;;;;;;5004343;28;20054;-65
2023/12/25 14:24:55;;;;;;;19.77;2.38;;;;;;;;;;5005138;28;20518;-65
2023/12/25 14:27:22;;;;;;;18.30;2.42;;;;;;;;;;5007599;28;20381;-65
2023/12/25 14:29:50;;;;;;;18.15;2.15;;;;;;;;;;5005247;28;20092;-65
2023/12/25 14:32:20;;;;;;;21.52;2.75;;;;;;;;;;5007325;28;20550;-65
2023/12/25 14:34:48;;;;;;;13.02;3.20;;;;;;;;;;5002784;28;20053;-65
2023/12/25 14:37:15;;;;;;;19.77;2.38;;;;;;;;;;4985021;28;20500;-65
2023/12/25 14:39:42;;;;;;;19.40;1.77;;;;;;;;;;5004688;28;20049;-66
2023/12/25 14:42:10;;;;;;;16.25;2.17;;;;;;;;;;5006365;28;20057;-66
2023/12/25 14:44:37;;;;;;;12.43;2.20;;;;;;;;;;5004057;28;20081;-66